ěÝzenÝ letovÚho provozu ╚eskÚ republiky
Letiste: LKBC Aktualizace: 25.05.2024 07:03:38  UTC
 METAR LKBC 25.05. 07:00 RRA
METAR LKBC 250700Z AUTO 10005KT 050V140 //// // SCT005 OVC011 13/12 Q1018=